Карточка аэропорта UAKK

Внимание!
Информация на этой странице в стадии наполнения.
Если вы не увидели какой-то информации, или заметили неточность - пожалуйста сообщите нам!
Спасибо!
Команда RU-STAFF
Название аэропортаКараганда
Название аэропорта (англ.)Karaganda
Превышение1768 ft. (538.9 m.)
Координаты49°40.302', 73°20.118'
Высота перехода10000
Эшелон переходаby ATC
Коды ответчика0630-0637, 7220-7227
Зона ОрВДАстана РПИ (UACN)
Данные METARUAKK 281100Z 29006MPS 9999 SCT045 10/M01 Q1021 NOSIG RMK QFE718/0958
Проноз погоды (TAF)UAKK 280501Z 2806/2906 33006MPS 9999 BKN030 BKN100 TX09/2812Z TN02/2824Z TEMPO 2806/2809 29009MPS SCT020CB BECMG 2809/2811 29006MPS TEMPO 2816/2903 23005MPS 3100 BR SCT011 BECMG 2903/2905 26007MPS SCT040
NOTAMshow/hide NOTAM
AWOS   TABLE

Информация о ВПП

ВПП Длина ВПП (м.) Покрытие Курс ВПП Частота ILS
053601Железобетон50109.9
233601Железобетон230111.7

Диспетчерские позиции




Спутниковое изображение